sensor_id;sensor_type;location;lat;lon;timestamp;P1;durP1;ratioP1;P2;durP2;ratioP2
40595;SDS011;26304;48.794;9.820;2023-04-02T00:00:15;0.63;;;0.63;;
40595;SDS011;26304;48.794;9.820;2023-04-02T00:05:59;0.80;;;0.80;;
40595;SDS011;26304;48.794;9.820;2023-04-02T00:11:43;0.90;;;0.90;;
40595;SDS011;26304;48.794;9.820;2023-04-02T00:17:29;0.90;;;0.77;;
40595;SDS011;26304;48.794;9.820;2023-04-02T00:23:12;0.65;;;0.63;;
40595;SDS011;26304;48.794;9.820;2023-04-02T00:28:56;1.00;;;0.88;;
40595;SDS011;26304;48.794;9.820;2023-04-02T00:34:39;0.70;;;0.70;;
40595;SDS011;26304;48.794;9.820;2023-04-02T00:40:23;0.60;;;0.60;;
40595;SDS011;26304;48.794;9.820;2023-04-02T00:46:09;0.60;;;0.60;;
40595;SDS011;26304;48.794;9.820;2023-04-02T00:51:57;1.25;;;1.13;;
40595;SDS011;26304;48.794;9.820;2023-04-02T00:57:43;0.80;;;0.80;;
40595;SDS011;26304;48.794;9.820;2023-04-02T01:03:28;0.63;;;0.63;;
40595;SDS011;26304;48.794;9.820;2023-04-02T01:09:19;0.60;;;0.60;;
40595;SDS011;26304;48.794;9.820;2023-04-02T01:15:11;1.30;;;0.70;;
40595;SDS011;26304;48.794;9.820;2023-04-02T01:21:12;0.60;;;0.60;;
40595;SDS011;26304;48.794;9.820;2023-04-02T01:27:03;0.63;;;0.60;;
40595;SDS011;26304;48.794;9.820;2023-04-02T01:32:49;0.77;;;0.73;;
40595;SDS011;26304;48.794;9.820;2023-04-02T01:38:35;0.63;;;0.63;;
40595;SDS011;26304;48.794;9.820;2023-04-02T01:44:30;0.65;;;0.65;;
40595;SDS011;26304;48.794;9.820;2023-04-02T01:50:25;0.85;;;0.80;;
40595;SDS011;26304;48.794;9.820;2023-04-02T01:56:11;0.70;;;0.70;;
40595;SDS011;26304;48.794;9.820;2023-04-02T02:01:56;0.60;;;0.60;;
40595;SDS011;26304;48.794;9.820;2023-04-02T02:07:44;0.60;;;0.60;;
40595;SDS011;26304;48.794;9.820;2023-04-02T02:13:26;0.60;;;0.60;;
40595;SDS011;26304;48.794;9.820;2023-04-02T02:19:11;0.55;;;0.55;;
40595;SDS011;26304;48.794;9.820;2023-04-02T02:25:05;0.73;;;0.70;;
40595;SDS011;26304;48.794;9.820;2023-04-02T02:30:53;0.60;;;0.60;;
40595;SDS011;26304;48.794;9.820;2023-04-02T02:36:42;0.57;;;0.57;;
40595;SDS011;26304;48.794;9.820;2023-04-02T02:42:33;0.68;;;0.60;;
40595;SDS011;26304;48.794;9.820;2023-04-02T02:48:29;0.60;;;0.60;;
40595;SDS011;26304;48.794;9.820;2023-04-02T02:54:17;0.47;;;0.40;;
40595;SDS011;26304;48.794;9.820;2023-04-02T03:00:02;0.60;;;0.60;;
40595;SDS011;26304;48.794;9.820;2023-04-02T03:05:49;0.50;;;0.50;;
40595;SDS011;26304;48.794;9.820;2023-04-02T03:11:37;0.63;;;0.63;;
40595;SDS011;26304;48.794;9.820;2023-04-02T03:17:26;0.50;;;0.50;;
40595;SDS011;26304;48.794;9.820;2023-04-02T03:23:15;0.45;;;0.45;;
40595;SDS011;26304;48.794;9.820;2023-04-02T03:29:02;0.52;;;0.52;;
40595;SDS011;26304;48.794;9.820;2023-04-02T03:34:52;0.50;;;0.50;;
40595;SDS011;26304;48.794;9.820;2023-04-02T03:40:38;0.40;;;0.40;;
40595;SDS011;26304;48.794;9.820;2023-04-02T03:46:25;0.57;;;0.40;;
40595;SDS011;26304;48.794;9.820;2023-04-02T03:52:23;0.55;;;0.55;;
40595;SDS011;26304;48.794;9.820;2023-04-02T03:58:10;0.50;;;0.50;;
40595;SDS011;26304;48.794;9.820;2023-04-02T04:04:00;0.40;;;0.40;;
40595;SDS011;26304;48.794;9.820;2023-04-02T04:09:49;0.75;;;0.50;;
40595;SDS011;26304;48.794;9.820;2023-04-02T04:15:34;0.43;;;0.40;;
40595;SDS011;26304;48.794;9.820;2023-04-02T04:21:20;0.40;;;0.40;;
40595;SDS011;26304;48.794;9.820;2023-04-02T04:27:14;0.40;;;0.40;;
40595;SDS011;26304;48.794;9.820;2023-04-02T04:33:03;0.85;;;0.50;;
40595;SDS011;26304;48.794;9.820;2023-04-02T04:38:51;1.55;;;0.50;;
40595;SDS011;26304;48.794;9.820;2023-04-02T04:44:42;2.08;;;0.52;;
40595;SDS011;26304;48.794;9.820;2023-04-02T04:50:32;0.40;;;0.40;;
40595;SDS011;26304;48.794;9.820;2023-04-02T04:56:20;0.40;;;0.40;;
40595;SDS011;26304;48.794;9.820;2023-04-02T05:02:07;1.25;;;0.50;;
40595;SDS011;26304;48.794;9.820;2023-04-02T05:07:55;1.33;;;0.40;;
40595;SDS011;26304;48.794;9.820;2023-04-02T05:13:41;1.58;;;0.80;;
40595;SDS011;26304;48.794;9.820;2023-04-02T05:19:33;1.17;;;0.40;;
40595;SDS011;26304;48.794;9.820;2023-04-02T05:25:21;1.13;;;0.45;;
40595;SDS011;26304;48.794;9.820;2023-04-02T05:31:06;0.50;;;0.43;;
40595;SDS011;26304;48.794;9.820;2023-04-02T05:36:54;0.40;;;0.40;;
40595;SDS011;26304;48.794;9.820;2023-04-02T05:42:37;1.55;;;0.50;;
40595;SDS011;26304;48.794;9.820;2023-04-02T05:48:24;0.77;;;0.50;;
40595;SDS011;26304;48.794;9.820;2023-04-02T05:54:17;0.60;;;0.40;;
40595;SDS011;26304;48.794;9.820;2023-04-02T06:00:04;1.00;;;0.47;;
40595;SDS011;26304;48.794;9.820;2023-04-02T06:05:51;0.30;;;0.30;;
40595;SDS011;26304;48.794;9.820;2023-04-02T06:11:38;0.43;;;0.30;;
40595;SDS011;26304;48.794;9.820;2023-04-02T06:17:25;0.50;;;0.40;;
40595;SDS011;26304;48.794;9.820;2023-04-02T06:23:09;0.40;;;0.40;;
40595;SDS011;26304;48.794;9.820;2023-04-02T06:29:00;0.43;;;0.32;;
40595;SDS011;26304;48.794;9.820;2023-04-02T06:34:47;1.05;;;0.47;;
40595;SDS011;26304;48.794;9.820;2023-04-02T06:40:36;1.45;;;0.45;;
40595;SDS011;26304;48.794;9.820;2023-04-02T06:46:26;0.95;;;0.50;;
40595;SDS011;26304;48.794;9.820;2023-04-02T06:52:15;3.70;;;0.68;;
40595;SDS011;26304;48.794;9.820;2023-04-02T06:58:02;1.75;;;0.40;;
40595;SDS011;26304;48.794;9.820;2023-04-02T07:03:46;0.60;;;0.30;;
40595;SDS011;26304;48.794;9.820;2023-04-02T07:09:28;1.88;;;0.55;;
40595;SDS011;26304;48.794;9.820;2023-04-02T07:15:13;1.02;;;0.50;;
40595;SDS011;26304;48.794;9.820;2023-04-02T07:20:58;1.25;;;0.50;;
40595;SDS011;26304;48.794;9.820;2023-04-02T07:26:41;1.05;;;0.30;;
40595;SDS011;26304;48.794;9.820;2023-04-02T07:32:23;0.60;;;0.40;;
40595;SDS011;26304;48.794;9.820;2023-04-02T07:38:07;1.63;;;0.50;;
40595;SDS011;26304;48.794;9.820;2023-04-02T07:43:49;1.17;;;0.40;;
40595;SDS011;26304;48.794;9.820;2023-04-02T07:49:32;0.20;;;0.20;;
40595;SDS011;26304;48.794;9.820;2023-04-02T07:55:15;0.45;;;0.38;;
40595;SDS011;26304;48.794;9.820;2023-04-02T08:00:58;2.30;;;0.60;;
40595;SDS011;26304;48.794;9.820;2023-04-02T08:06:43;1.30;;;0.60;;
40595;SDS011;26304;48.794;9.820;2023-04-02T08:12:27;1.00;;;0.63;;
40595;SDS011;26304;48.794;9.820;2023-04-02T08:18:09;1.00;;;0.70;;
40595;SDS011;26304;48.794;9.820;2023-04-02T08:23:52;1.00;;;0.60;;
40595;SDS011;26304;48.794;9.820;2023-04-02T08:29:36;1.10;;;0.63;;
40595;SDS011;26304;48.794;9.820;2023-04-02T08:35:18;0.50;;;0.50;;
40595;SDS011;26304;48.794;9.820;2023-04-02T08:41:03;0.70;;;0.70;;
40595;SDS011;26304;48.794;9.820;2023-04-02T08:46:48;0.80;;;0.70;;
40595;SDS011;26304;48.794;9.820;2023-04-02T08:52:35;1.58;;;0.63;;
40595;SDS011;26304;48.794;9.820;2023-04-02T08:58:21;0.80;;;0.70;;
40595;SDS011;26304;48.794;9.820;2023-04-02T09:04:15;0.90;;;0.65;;
40595;SDS011;26304;48.794;9.820;2023-04-02T09:09:59;1.10;;;0.77;;
40595;SDS011;26304;48.794;9.820;2023-04-02T09:15:43;0.93;;;0.77;;
40595;SDS011;26304;48.794;9.820;2023-04-02T09:21:31;0.52;;;0.52;;
40595;SDS011;26304;48.794;9.820;2023-04-02T09:27:17;1.00;;;0.60;;
40595;SDS011;26304;48.794;9.820;2023-04-02T09:33:01;0.90;;;0.90;;
40595;SDS011;26304;48.794;9.820;2023-04-02T09:38:58;1.20;;;1.10;;
40595;SDS011;26304;48.794;9.820;2023-04-02T09:44:46;1.02;;;0.95;;
40595;SDS011;26304;48.794;9.820;2023-04-02T09:50:29;1.00;;;0.88;;
40595;SDS011;26304;48.794;9.820;2023-04-02T09:56:15;0.90;;;0.90;;
40595;SDS011;26304;48.794;9.820;2023-04-02T10:01:59;1.35;;;0.80;;
40595;SDS011;26304;48.794;9.820;2023-04-02T10:07:44;3.08;;;1.00;;
40595;SDS011;26304;48.794;9.820;2023-04-02T10:13:30;1.52;;;1.10;;
40595;SDS011;26304;48.794;9.820;2023-04-02T10:19:17;3.15;;;0.90;;
40595;SDS011;26304;48.794;9.820;2023-04-02T10:25:12;2.33;;;1.10;;
40595;SDS011;26304;48.794;9.820;2023-04-02T10:30:58;1.63;;;0.75;;
40595;SDS011;26304;48.794;9.820;2023-04-02T10:36:49;0.82;;;0.73;;
40595;SDS011;26304;48.794;9.820;2023-04-02T10:42:38;1.05;;;0.75;;
40595;SDS011;26304;48.794;9.820;2023-04-02T10:48:29;1.02;;;0.93;;
40595;SDS011;26304;48.794;9.820;2023-04-02T10:54:24;2.03;;;0.80;;
40595;SDS011;26304;48.794;9.820;2023-04-02T11:00:25;1.20;;;0.80;;
40595;SDS011;26304;48.794;9.820;2023-04-02T11:06:13;1.58;;;0.93;;
40595;SDS011;26304;48.794;9.820;2023-04-02T11:11:59;0.90;;;0.90;;
40595;SDS011;26304;48.794;9.820;2023-04-02T11:17:44;0.82;;;0.80;;
40595;SDS011;26304;48.794;9.820;2023-04-02T11:23:29;0.90;;;0.90;;
40595;SDS011;26304;48.794;9.820;2023-04-02T11:29:23;1.63;;;0.73;;
40595;SDS011;26304;48.794;9.820;2023-04-02T11:41:09;1.20;;;0.82;;
40595;SDS011;26304;48.794;9.820;2023-04-02T11:46:51;1.10;;;0.80;;
40595;SDS011;26304;48.794;9.820;2023-04-02T11:52:34;1.35;;;0.85;;
40595;SDS011;26304;48.794;9.820;2023-04-02T12:04:31;1.15;;;0.70;;
40595;SDS011;26304;48.794;9.820;2023-04-02T12:10:22;0.70;;;0.70;;
40595;SDS011;26304;48.794;9.820;2023-04-02T12:16:08;1.35;;;0.60;;
40595;SDS011;26304;48.794;9.820;2023-04-02T12:21:53;1.10;;;0.60;;
40595;SDS011;26304;48.794;9.820;2023-04-02T12:27:36;0.70;;;0.70;;
40595;SDS011;26304;48.794;9.820;2023-04-02T12:33:27;0.63;;;0.60;;
40595;SDS011;26304;48.794;9.820;2023-04-02T12:39:15;1.95;;;0.90;;
40595;SDS011;26304;48.794;9.820;2023-04-02T12:44:58;0.70;;;0.70;;
40595;SDS011;26304;48.794;9.820;2023-04-02T12:50:43;1.30;;;0.50;;
40595;SDS011;26304;48.794;9.820;2023-04-02T12:56:26;0.68;;;0.57;;
40595;SDS011;26304;48.794;9.820;2023-04-02T13:02:15;0.50;;;0.50;;
40595;SDS011;26304;48.794;9.820;2023-04-02T13:08:01;0.50;;;0.50;;
40595;SDS011;26304;48.794;9.820;2023-04-02T13:13:45;1.17;;;1.08;;
40595;SDS011;26304;48.794;9.820;2023-04-02T13:19:29;5.85;;;5.35;;
40595;SDS011;26304;48.794;9.820;2023-04-02T13:25:13;3.85;;;3.55;;
40595;SDS011;26304;48.794;9.820;2023-04-02T13:30:56;3.10;;;2.80;;
40595;SDS011;26304;48.794;9.820;2023-04-02T13:36:38;2.58;;;2.38;;
40595;SDS011;26304;48.794;9.820;2023-04-02T13:42:22;2.20;;;2.00;;
40595;SDS011;26304;48.794;9.820;2023-04-02T13:48:04;2.38;;;2.17;;
40595;SDS011;26304;48.794;9.820;2023-04-02T13:53:49;1.63;;;1.52;;
40595;SDS011;26304;48.794;9.820;2023-04-02T13:59:37;1.42;;;1.33;;
40595;SDS011;26304;48.794;9.820;2023-04-02T14:05:22;1.85;;;1.67;;
40595;SDS011;26304;48.794;9.820;2023-04-02T14:11:17;2.47;;;1.10;;
40595;SDS011;26304;48.794;9.820;2023-04-02T14:17:18;2.40;;;1.60;;
40595;SDS011;26304;48.794;9.820;2023-04-02T14:23:13;1.48;;;0.90;;
40595;SDS011;26304;48.794;9.820;2023-04-02T14:29:07;1.20;;;1.10;;
40595;SDS011;26304;48.794;9.820;2023-04-02T14:35:00;1.05;;;0.95;;
40595;SDS011;26304;48.794;9.820;2023-04-02T14:40:54;0.70;;;0.70;;
40595;SDS011;26304;48.794;9.820;2023-04-02T14:46:40;1.70;;;1.10;;
40595;SDS011;26304;48.794;9.820;2023-04-02T14:52:24;0.82;;;0.82;;
40595;SDS011;26304;48.794;9.820;2023-04-02T14:58:12;1.48;;;1.00;;
40595;SDS011;26304;48.794;9.820;2023-04-02T15:03:59;4.50;;;1.90;;
40595;SDS011;26304;48.794;9.820;2023-04-02T15:09:45;16.15;;;4.68;;
40595;SDS011;26304;48.794;9.820;2023-04-02T15:15:37;12.68;;;3.95;;
40595;SDS011;26304;48.794;9.820;2023-04-02T15:21:33;12.15;;;3.22;;
40595;SDS011;26304;48.794;9.820;2023-04-02T15:27:30;8.25;;;2.85;;
40595;SDS011;26304;48.794;9.820;2023-04-02T15:33:39;8.35;;;2.53;;
40595;SDS011;26304;48.794;9.820;2023-04-02T15:39:28;5.53;;;2.45;;
40595;SDS011;26304;48.794;9.820;2023-04-02T15:45:34;4.82;;;2.08;;
40595;SDS011;26304;48.794;9.820;2023-04-02T15:51:39;4.45;;;1.90;;
40595;SDS011;26304;48.794;9.820;2023-04-02T15:57:36;3.03;;;1.73;;
40595;SDS011;26304;48.794;9.820;2023-04-02T16:03:40;2.10;;;1.90;;
40595;SDS011;26304;48.794;9.820;2023-04-02T16:09:38;3.58;;;1.45;;
40595;SDS011;26304;48.794;9.820;2023-04-02T16:15:33;2.28;;;1.40;;
40595;SDS011;26304;48.794;9.820;2023-04-02T16:21:21;1.55;;;1.25;;
40595;SDS011;26304;48.794;9.820;2023-04-02T16:27:06;1.42;;;1.33;;
40595;SDS011;26304;48.794;9.820;2023-04-02T16:33:04;1.27;;;1.17;;
40595;SDS011;26304;48.794;9.820;2023-04-02T16:38:58;2.65;;;1.20;;
40595;SDS011;26304;48.794;9.820;2023-04-02T16:44:47;2.30;;;1.10;;
40595;SDS011;26304;48.794;9.820;2023-04-02T16:50:43;1.92;;;1.05;;
40595;SDS011;26304;48.794;9.820;2023-04-02T16:56:40;1.00;;;1.00;;
40595;SDS011;26304;48.794;9.820;2023-04-02T17:02:40;1.20;;;1.20;;
40595;SDS011;26304;48.794;9.820;2023-04-02T17:08:35;1.42;;;1.15;;
40595;SDS011;26304;48.794;9.820;2023-04-02T17:14:25;2.47;;;1.00;;
40595;SDS011;26304;48.794;9.820;2023-04-02T17:20:13;1.27;;;1.17;;
40595;SDS011;26304;48.794;9.820;2023-04-02T17:25:59;2.13;;;1.75;;
40595;SDS011;26304;48.794;9.820;2023-04-02T17:31:48;2.47;;;1.95;;
40595;SDS011;26304;48.794;9.820;2023-04-02T17:37:33;2.22;;;2.03;;
40595;SDS011;26304;48.794;9.820;2023-04-02T17:43:28;1.80;;;1.70;;
40595;SDS011;26304;48.794;9.820;2023-04-02T17:49:19;1.73;;;1.63;;
40595;SDS011;26304;48.794;9.820;2023-04-02T17:55:11;1.25;;;1.25;;
40595;SDS011;26304;48.794;9.820;2023-04-02T18:01:01;1.50;;;1.40;;
40595;SDS011;26304;48.794;9.820;2023-04-02T18:06:52;1.35;;;1.25;;
40595;SDS011;26304;48.794;9.820;2023-04-02T18:12:50;1.50;;;1.40;;
40595;SDS011;26304;48.794;9.820;2023-04-02T18:18:40;2.25;;;1.40;;
40595;SDS011;26304;48.794;9.820;2023-04-02T18:24:50;1.60;;;1.50;;
40595;SDS011;26304;48.794;9.820;2023-04-02T18:30:46;1.30;;;1.20;;
40595;SDS011;26304;48.794;9.820;2023-04-02T18:36:35;2.42;;;1.50;;
40595;SDS011;26304;48.794;9.820;2023-04-02T18:42:35;1.70;;;1.60;;
40595;SDS011;26304;48.794;9.820;2023-04-02T18:48:30;1.55;;;1.45;;
40595;SDS011;26304;48.794;9.820;2023-04-02T18:54:22;1.95;;;1.60;;
40595;SDS011;26304;48.794;9.820;2023-04-02T19:00:18;2.05;;;1.40;;
40595;SDS011;26304;48.794;9.820;2023-04-02T19:06:06;2.28;;;1.63;;
40595;SDS011;26304;48.794;9.820;2023-04-02T19:11:54;1.60;;;1.50;;
40595;SDS011;26304;48.794;9.820;2023-04-02T19:17:38;2.28;;;1.42;;
40595;SDS011;26304;48.794;9.820;2023-04-02T19:23:31;2.13;;;1.50;;
40595;SDS011;26304;48.794;9.820;2023-04-02T19:29:27;1.33;;;1.23;;
40595;SDS011;26304;48.794;9.820;2023-04-02T19:35:25;3.30;;;1.40;;
40595;SDS011;26304;48.794;9.820;2023-04-02T19:41:11;1.40;;;1.30;;
40595;SDS011;26304;48.794;9.820;2023-04-02T19:47:02;1.27;;;1.17;;
40595;SDS011;26304;48.794;9.820;2023-04-02T19:52:46;0.93;;;0.93;;
40595;SDS011;26304;48.794;9.820;2023-04-02T19:58:29;1.20;;;1.10;;
40595;SDS011;26304;48.794;9.820;2023-04-02T20:04:12;1.20;;;0.90;;
40595;SDS011;26304;48.794;9.820;2023-04-02T20:09:57;0.85;;;0.85;;
40595;SDS011;26304;48.794;9.820;2023-04-02T20:15:39;1.65;;;1.27;;
40595;SDS011;26304;48.794;9.820;2023-04-02T20:21:22;1.58;;;0.93;;
40595;SDS011;26304;48.794;9.820;2023-04-02T20:27:06;0.85;;;0.85;;
40595;SDS011;26304;48.794;9.820;2023-04-02T20:32:48;0.98;;;0.98;;
40595;SDS011;26304;48.794;9.820;2023-04-02T20:38:30;1.05;;;0.95;;
40595;SDS011;26304;48.794;9.820;2023-04-02T20:44:16;0.90;;;0.90;;
40595;SDS011;26304;48.794;9.820;2023-04-02T20:49:58;1.15;;;1.05;;
40595;SDS011;26304;48.794;9.820;2023-04-02T20:55:40;1.00;;;0.90;;
40595;SDS011;26304;48.794;9.820;2023-04-02T21:01:25;1.20;;;1.10;;
40595;SDS011;26304;48.794;9.820;2023-04-02T21:07:08;0.90;;;0.90;;
40595;SDS011;26304;48.794;9.820;2023-04-02T21:12:50;0.70;;;0.70;;
40595;SDS011;26304;48.794;9.820;2023-04-02T21:18:34;0.73;;;0.73;;
40595;SDS011;26304;48.794;9.820;2023-04-02T21:24:17;0.90;;;0.70;;
40595;SDS011;26304;48.794;9.820;2023-04-02T21:29:59;0.95;;;0.95;;
40595;SDS011;26304;48.794;9.820;2023-04-02T21:35:43;0.90;;;0.90;;
40595;SDS011;26304;48.794;9.820;2023-04-02T21:41:26;0.80;;;0.80;;
40595;SDS011;26304;48.794;9.820;2023-04-02T21:47:10;0.80;;;0.80;;
40595;SDS011;26304;48.794;9.820;2023-04-02T21:52:54;0.80;;;0.80;;
40595;SDS011;26304;48.794;9.820;2023-04-02T21:58:36;0.82;;;0.77;;
40595;SDS011;26304;48.794;9.820;2023-04-02T22:04:19;0.88;;;0.70;;
40595;SDS011;26304;48.794;9.820;2023-04-02T22:10:04;0.60;;;0.60;;
40595;SDS011;26304;48.794;9.820;2023-04-02T22:15:47;0.70;;;0.70;;
40595;SDS011;26304;48.794;9.820;2023-04-02T22:21:30;0.82;;;0.82;;
40595;SDS011;26304;48.794;9.820;2023-04-02T22:27:14;0.60;;;0.60;;
40595;SDS011;26304;48.794;9.820;2023-04-02T22:32:56;0.88;;;0.80;;
40595;SDS011;26304;48.794;9.820;2023-04-02T22:38:39;0.73;;;0.73;;
40595;SDS011;26304;48.794;9.820;2023-04-02T22:44:23;0.70;;;0.65;;
40595;SDS011;26304;48.794;9.820;2023-04-02T22:50:05;0.88;;;0.88;;
40595;SDS011;26304;48.794;9.820;2023-04-02T22:55:48;0.63;;;0.63;;
40595;SDS011;26304;48.794;9.820;2023-04-02T23:01:34;0.50;;;0.50;;
40595;SDS011;26304;48.794;9.820;2023-04-02T23:07:17;0.70;;;0.70;;
40595;SDS011;26304;48.794;9.820;2023-04-02T23:12:59;0.77;;;0.77;;
40595;SDS011;26304;48.794;9.820;2023-04-02T23:18:43;0.50;;;0.50;;
40595;SDS011;26304;48.794;9.820;2023-04-02T23:24:27;0.65;;;0.65;;
40595;SDS011;26304;48.794;9.820;2023-04-02T23:30:10;0.60;;;0.60;;
40595;SDS011;26304;48.794;9.820;2023-04-02T23:35:54;0.70;;;0.70;;
40595;SDS011;26304;48.794;9.820;2023-04-02T23:41:37;0.70;;;0.70;;
40595;SDS011;26304;48.794;9.820;2023-04-02T23:47:21;0.60;;;0.60;;
40595;SDS011;26304;48.794;9.820;2023-04-02T23:53:05;0.93;;;0.60;;
40595;SDS011;26304;48.794;9.820;2023-04-02T23:58:47;0.68;;;0.68;;
